California — WDA4337 — position and weather

sailwx.info

Track history (hours):
 
Tides and Currents Weather Stations Pressure Air Temp Water Temp Dewpoint Dewpoint Depression Visibility Wind Speed Wind Dir Waves Ship Positions

California

Owner: SAN FRANCISCO BAR PILOTS, SAN FRANCISCO, CA. More information available from US FCC via Universal Licensing System and Coast Guard Vessel Documentation Center.

Last reported at 2018-Jan-22 12:39 UTC. Time now 2018-Jan-22 17:58 UTC.
Position N 37°48' W 122°24'.

Length 32 m; draft 3 m.

Type: Pilot. MMSI: 366808340.

Date/timePositionNaut miles runAvg speedWind from/ knotsBaromVisibWave heightAir tempDewpointWater temp
2018-Jan-22 12:39N 37°48' W 122°24'0 0.0
2018-Jan-22 12:30N 37°48' W 122°24'4 8.0
2018-Jan-22 12:00N 37°49' W 122°29'713.2
2018-Jan-22 11:30N 37°46' W 122°36'1 1.6
2018-Jan-22 11:00N 37°46' W 122°37'611.7
2018-Jan-22 10:30N 37°48' W 122°30'510.6
2018-Jan-22 10:00N 37°48' W 122°24'0 0.0
2018-Jan-21 12:31N 37°48' W 122°24'0 0.0
2018-Jan-21 12:30N 37°48' W 122°24'3 6.3
2018-Jan-21 12:00N 37°49' W 122°28'612.7
2018-Jan-21 11:31N 37°47' W 122°35'0 0.7
2018-Jan-21 11:01N 37°47' W 122°35'611.9
2018-Jan-21 10:31N 37°49' W 122°28'3 6.3
2018-Jan-21 10:01N 37°48' W 122°24'0 0.0
2018-Jan-21 09:31N 37°48' W 122°24'0 0.0
2018-Jan-20 14:13N 37°48' W 122°24'1 6.9
2018-Jan-20 14:00N 37°49' W 122°25'612.5
2018-Jan-20 13:30N 37°47' W 122°33'612.5
2018-Jan-20 13:00N 37°45' W 122°40'1 1.4
2018-Jan-20 12:31N 37°44' W 122°40'1 1.9
2018-Jan-20 12:00N 37°43' W 122°41'1 1.2
2018-Jan-20 11:30N 37°43' W 122°40'1 1.8
2018-Jan-20 11:00N 37°43' W 122°41'1 2.0
2018-Jan-20 10:30N 37°44' W 122°40'1 2.2
2018-Jan-20 10:00N 37°45' W 122°42'1 1.9
2018-Jan-20 09:30N 37°45' W 122°42'1 1.7
2018-Jan-20 09:00N 37°46' W 122°41'1 1.7
2018-Jan-20 08:30N 37°46' W 122°40'0 1.0
2018-Jan-20 08:00N 37°46' W 122°41'1 2.0
2018-Jan-20 07:31N 37°46' W 122°40'1 1.0
2018-Jan-20 07:01N 37°46' W 122°40'1 2.1
2018-Jan-20 06:30N 37°46' W 122°41'1 2.4
2018-Jan-20 06:00N 37°46' W 122°40'1 1.5
2018-Jan-20 05:31N 37°46' W 122°41'1 1.8
2018-Jan-20 05:00N 37°46' W 122°40'1 1.4
2018-Jan-20 04:30N 37°46' W 122°40'0 0.8
2018-Jan-20 04:00N 37°46' W 122°40'1 2.0
2018-Jan-20 03:30N 37°46' W 122°41'1 1.6
2018-Jan-20 03:00N 37°45' W 122°41'1 1.4
2018-Jan-20 02:30N 37°46' W 122°41'1 1.4
2018-Jan-20 02:00N 37°46' W 122°41'2 3.2
2018-Jan-20 01:30N 37°45' W 122°40'0 0.6
2018-Jan-20 01:00N 37°46' W 122°40'1 2.6
2018-Jan-20 00:30N 37°44' W 122°40'2 3.9
2018-Jan-20 00:00N 37°46' W 122°41'1 1.0
2018-Jan-19 23:30N 37°46' W 122°41'1 1.5
2018-Jan-19 23:00N 37°46' W 122°40'1 2.7
2018-Jan-19 22:29N 37°46' W 122°42'2 5.0
2018-Jan-19 22:00N 37°44' W 122°40'1 1.4
2018-Jan-19 21:21N 37°44' W 122°41'1 2.7
2018-Jan-19 21:00N 37°44' W 122°42'2 3.1
2018-Jan-19 20:29N 37°44' W 122°40'1 2.6
2018-Jan-19 19:59N 37°44' W 122°42'0 1.0
2018-Jan-19 19:29N 37°44' W 122°42'510.9
2018-Jan-19 19:00N 37°46' W 122°36'612.7
2018-Jan-19 18:30N 37°49' W 122°28'4 7.7
2018-Jan-19 18:00N 37°48' W 122°24'0 0.0
2018-Jan-19 17:30N 37°48' W 122°24'0 0.0
2018-Jan-19 17:00N 37°48' W 122°24'0 0.0
2018-Jan-19 16:30N 37°48' W 122°24'0 0.0
2018-Jan-19 16:00N 37°48' W 122°24'2 3.1
2018-Jan-19 15:30N 37°49' W 122°25'4 7.4
2018-Jan-19 15:01N 37°48' W 122°30'3 5.2
2018-Jan-19 14:30N 37°47' W 122°33'3 5.1
2018-Jan-19 14:00N 37°47' W 122°36'3 6.2
2018-Jan-19 13:30N 37°46' W 122°40'2 3.9
2018-Jan-19 13:00N 37°46' W 122°42'1 1.6
2018-Jan-19 12:30N 37°46' W 122°41'1 1.9
2018-Jan-19 12:00N 37°46' W 122°40'1 2.7
2018-Jan-19 11:30N 37°44' W 122°40'3 5.3
2018-Jan-19 11:00N 37°46' W 122°42'1 1.0
2018-Jan-19 10:30N 37°46' W 122°42'1 1.8
2018-Jan-19 10:00N 37°46' W 122°41'0 0.1
2018-Jan-19 09:30N 37°46' W 122°41'2 3.2
2018-Jan-19 09:00N 37°46' W 122°43'1 1.9
2018-Jan-19 08:30N 37°46' W 122°42'0 0.5
2018-Jan-19 07:57N 37°46' W 122°41'1 3.1
2018-Jan-19 07:30N 37°46' W 122°43'1 2.7
2018-Jan-19 06:59N 37°46' W 122°41'1 1.9
2018-Jan-19 06:30N 37°45' W 122°42'1 2.6
2018-Jan-19 06:00N 37°45' W 122°41'1 1.0
2018-Jan-19 05:27N 37°45' W 122°40'2 3.5
2018-Jan-19 05:00N 37°44' W 122°42'1 1.2
2018-Jan-19 04:31N 37°45' W 122°42'1 1.8
2018-Jan-19 03:58N 37°46' W 122°42'1 1.4
2018-Jan-19 03:30N 37°46' W 122°43'1 2.1
2018-Jan-19 02:58N 37°46' W 122°41'2 2.5
2018-Jan-19 02:12N 37°46' W 122°43'1 3.0
2018-Jan-19 01:58N 37°45' W 122°43'1 2.8
2018-Jan-19 01:30N 37°44' W 122°41'1 2.2
2018-Jan-19 00:58N 37°44' W 122°42'2 3.5
2018-Jan-19 00:29N 37°45' W 122°42'1 2.6
2018-Jan-19 00:00N 37°45' W 122°41'1 1.5
2018-Jan-18 23:30N 37°44' W 122°41'1 1.7
2018-Jan-18 23:00N 37°45' W 122°41'1 1.4
2018-Jan-18 22:30N 37°46' W 122°41'1 2.2
2018-Jan-18 22:00N 37°46' W 122°39'1 1.6
2018-Jan-18 21:25N 37°46' W 122°40'1 2.5
2018-Jan-18 20:57N 37°46' W 122°42'1 1.2
2018-Jan-18 20:29N 37°46' W 122°41'2 3.3
2018-Jan-18 19:59N 37°45' W 122°41'1 1.0
2018-Jan-18 19:17N 37°45' W 122°42'1 2.6
2018-Jan-18 18:51N 37°45' W 122°41'0 0.1
2018-Jan-18 18:26N 37°45' W 122°41'0 0.8
2018-Jan-18 18:00N 37°45' W 122°41'2 2.6
2018-Jan-18 17:23N 37°45' W 122°43'2 5.0
2018-Jan-18 17:01N 37°43' W 122°41'2 4.9
2018-Jan-18 16:30N 37°45' W 122°43'1 1.4
2018-Jan-18 16:00N 37°46' W 122°43'0 0.7
2018-Jan-18 15:30N 37°46' W 122°42'1 1.7
2018-Jan-18 15:00N 37°45' W 122°41'1 2.7
2018-Jan-18 14:28N 37°45' W 122°40'1 2.0
2018-Jan-18 14:00N 37°45' W 122°41'1 2.5
2018-Jan-18 13:30N 37°46' W 122°40'0 0.7
2018-Jan-18 12:55N 37°46' W 122°41'1 2.9
2018-Jan-18 12:30N 37°45' W 122°41'1 2.8
2018-Jan-18 12:00N 37°45' W 122°39'1 1.8
2018-Jan-18 11:30N 37°45' W 122°40'0 0.9
2018-Jan-18 11:00N 37°44' W 122°41'2 4.6
2018-Jan-18 10:30N 37°46' W 122°42'0 0.1
2018-Jan-18 10:00N 37°46' W 122°42'2 3.5
2018-Jan-18 09:30N 37°45' W 122°40'1 2.3
2018-Jan-18 09:00N 37°46' W 122°41'0 0.3
2018-Jan-18 08:30N 37°46' W 122°40'0 0.7
2018-Jan-18 08:00N 37°46' W 122°40'2 4.2
2018-Jan-18 07:30N 37°44' W 122°42'0 0.3
2018-Jan-18 07:00N 37°44' W 122°42'0 0.8
2018-Jan-18 06:30N 37°45' W 122°41'1 1.5
2018-Jan-18 06:00N 37°45' W 122°41'1 1.7
2018-Jan-18 05:30N 37°46' W 122°40'0 0.6
2018-Jan-18 05:00N 37°46' W 122°40'1 1.7
2018-Jan-18 04:30N 37°46' W 122°41'1 2.1
2018-Jan-18 03:59N 37°46' W 122°40'0 0.9
2018-Jan-18 03:30N 37°46' W 122°40'0 0.3
2018-Jan-18 03:00N 37°46' W 122°40'0 0.7
2018-Jan-18 02:30N 37°46' W 122°40'1 1.9
2018-Jan-18 01:59N 37°46' W 122°41'1 1.4
2018-Jan-18 01:30N 37°46' W 122°40'1 1.1
2018-Jan-18 01:00N 37°45' W 122°40'1 1.5
2018-Jan-18 00:00N 37°44' W 122°40'0 0.9
2018-Jan-17 23:57N 37°44' W 122°40'  
Track history (hours):
 
Tides and Currents Weather Stations Pressure Air Temp Water Temp Dewpoint Dewpoint Depression Visibility Wind Speed Wind Dir Waves Ship Positions

California

Owner: SAN FRANCISCO BAR PILOTS, SAN FRANCISCO, CA. More information available from US FCC via Universal Licensing System and Coast Guard Vessel Documentation Center.

Last reported at 2018-Jan-22 12:39 UTC. Time now 2018-Jan-22 17:58 UTC.
Position N 37°48' W 122°24'.

Length 32 m; draft 3 m.

Type: Pilot. MMSI: 366808340.

Date/timePositionNaut miles runAvg speedWind from/ knotsBaromVisibWave heightAir tempDewpointWater temp
2018-Jan-22 12:39N 37°48' W 122°24'0 0.0
2018-Jan-22 12:30N 37°48' W 122°24'4 8.0
2018-Jan-22 12:00N 37°49' W 122°29'713.2
2018-Jan-22 11:30N 37°46' W 122°36'1 1.6
2018-Jan-22 11:00N 37°46' W 122°37'611.7
2018-Jan-22 10:30N 37°48' W 122°30'510.6
2018-Jan-22 10:00N 37°48' W 122°24'0 0.0
2018-Jan-21 12:31N 37°48' W 122°24'0 0.0
2018-Jan-21 12:30N 37°48' W 122°24'3 6.3
2018-Jan-21 12:00N 37°49' W 122°28'612.7
2018-Jan-21 11:31N 37°47' W 122°35'0 0.7
2018-Jan-21 11:01N 37°47' W 122°35'611.9
2018-Jan-21 10:31N 37°49' W 122°28'3 6.3
2018-Jan-21 10:01N 37°48' W 122°24'0 0.0
2018-Jan-21 09:31N 37°48' W 122°24'0 0.0
2018-Jan-20 14:13N 37°48' W 122°24'1 6.9
2018-Jan-20 14:00N 37°49' W 122°25'612.5
2018-Jan-20 13:30N 37°47' W 122°33'612.5
2018-Jan-20 13:00N 37°45' W 122°40'1 1.4
2018-Jan-20 12:31N 37°44' W 122°40'1 1.9
2018-Jan-20 12:00N 37°43' W 122°41'1 1.2
2018-Jan-20 11:30N 37°43' W 122°40'1 1.8
2018-Jan-20 11:00N 37°43' W 122°41'1 2.0
2018-Jan-20 10:30N 37°44' W 122°40'1 2.2
2018-Jan-20 10:00N 37°45' W 122°42'1 1.9
2018-Jan-20 09:30N 37°45' W 122°42'1 1.7
2018-Jan-20 09:00N 37°46' W 122°41'1 1.7
2018-Jan-20 08:30N 37°46' W 122°40'0 1.0
2018-Jan-20 08:00N 37°46' W 122°41'1 2.0
2018-Jan-20 07:31N 37°46' W 122°40'1 1.0
2018-Jan-20 07:01N 37°46' W 122°40'1 2.1
2018-Jan-20 06:30N 37°46' W 122°41'1 2.4
2018-Jan-20 06:00N 37°46' W 122°40'1 1.5
2018-Jan-20 05:31N 37°46' W 122°41'1 1.8
2018-Jan-20 05:00N 37°46' W 122°40'1 1.4
2018-Jan-20 04:30N 37°46' W 122°40'0 0.8
2018-Jan-20 04:00N 37°46' W 122°40'1 2.0
2018-Jan-20 03:30N 37°46' W 122°41'1 1.6
2018-Jan-20 03:00N 37°45' W 122°41'1 1.4
2018-Jan-20 02:30N 37°46' W 122°41'1 1.4
2018-Jan-20 02:00N 37°46' W 122°41'2 3.2
2018-Jan-20 01:30N 37°45' W 122°40'0 0.6
2018-Jan-20 01:00N 37°46' W 122°40'1 2.6
2018-Jan-20 00:30N 37°44' W 122°40'2 3.9
2018-Jan-20 00:00N 37°46' W 122°41'1 1.0
2018-Jan-19 23:30N 37°46' W 122°41'1 1.5
2018-Jan-19 23:00N 37°46' W 122°40'1 2.7
2018-Jan-19 22:29N 37°46' W 122°42'2 5.0
2018-Jan-19 22:00N 37°44' W 122°40'1 1.4
2018-Jan-19 21:21N 37°44' W 122°41'1 2.7
2018-Jan-19 21:00N 37°44' W 122°42'2 3.1
2018-Jan-19 20:29N 37°44' W 122°40'1 2.6
2018-Jan-19 19:59N 37°44' W 122°42'0 1.0
2018-Jan-19 19:29N 37°44' W 122°42'510.9
2018-Jan-19 19:00N 37°46' W 122°36'612.7
2018-Jan-19 18:30N 37°49' W 122°28'4 7.7
2018-Jan-19 18:00N 37°48' W 122°24'0 0.0
2018-Jan-19 17:30N 37°48' W 122°24'0 0.0
2018-Jan-19 17:00N 37°48' W 122°24'0 0.0
2018-Jan-19 16:30N 37°48' W 122°24'0 0.0
2018-Jan-19 16:00N 37°48' W 122°24'2 3.1
2018-Jan-19 15:30N 37°49' W 122°25'4 7.4
2018-Jan-19 15:01N 37°48' W 122°30'3 5.2
2018-Jan-19 14:30N 37°47' W 122°33'3 5.1
2018-Jan-19 14:00N 37°47' W 122°36'3 6.2
2018-Jan-19 13:30N 37°46' W 122°40'2 3.9
2018-Jan-19 13:00N 37°46' W 122°42'1 1.6
2018-Jan-19 12:30N 37°46' W 122°41'1 1.9
2018-Jan-19 12:00N 37°46' W 122°40'1 2.7
2018-Jan-19 11:30N 37°44' W 122°40'3 5.3
2018-Jan-19 11:00N 37°46' W 122°42'1 1.0
2018-Jan-19 10:30N 37°46' W 122°42'1 1.8
2018-Jan-19 10:00N 37°46' W 122°41'0 0.1
2018-Jan-19 09:30N 37°46' W 122°41'2 3.2
2018-Jan-19 09:00N 37°46' W 122°43'1 1.9
2018-Jan-19 08:30N 37°46' W 122°42'0 0.5
2018-Jan-19 07:57N 37°46' W 122°41'1 3.1
2018-Jan-19 07:30N 37°46' W 122°43'1 2.7
2018-Jan-19 06:59N 37°46' W 122°41'1 1.9
2018-Jan-19 06:30N 37°45' W 122°42'1 2.6
2018-Jan-19 06:00N 37°45' W 122°41'1 1.0
2018-Jan-19 05:27N 37°45' W 122°40'2 3.5
2018-Jan-19 05:00N 37°44' W 122°42'1 1.2
2018-Jan-19 04:31N 37°45' W 122°42'1 1.8
2018-Jan-19 03:58N 37°46' W 122°42'1 1.4
2018-Jan-19 03:30N 37°46' W 122°43'1 2.1
2018-Jan-19 02:58N 37°46' W 122°41'2 2.5
2018-Jan-19 02:12N 37°46' W 122°43'1 3.0
2018-Jan-19 01:58N 37°45' W 122°43'1 2.8
2018-Jan-19 01:30N 37°44' W 122°41'1 2.2
2018-Jan-19 00:58N 37°44' W 122°42'2 3.5
2018-Jan-19 00:29N 37°45' W 122°42'1 2.6
2018-Jan-19 00:00N 37°45' W 122°41'1 1.5
2018-Jan-18 23:30N 37°44' W 122°41'1 1.7
2018-Jan-18 23:00N 37°45' W 122°41'1 1.4
2018-Jan-18 22:30N 37°46' W 122°41'1 2.2
2018-Jan-18 22:00N 37°46' W 122°39'1 1.6
2018-Jan-18 21:25N 37°46' W 122°40'1 2.5
2018-Jan-18 20:57N 37°46' W 122°42'1 1.2
2018-Jan-18 20:29N 37°46' W 122°41'2 3.3
2018-Jan-18 19:59N 37°45' W 122°41'1 1.0
2018-Jan-18 19:17N 37°45' W 122°42'1 2.6
2018-Jan-18 18:51N 37°45' W 122°41'0 0.1
2018-Jan-18 18:26N 37°45' W 122°41'0 0.8
2018-Jan-18 18:00N 37°45' W 122°41'2 2.6
2018-Jan-18 17:23N 37°45' W 122°43'2 5.0
2018-Jan-18 17:01N 37°43' W 122°41'2 4.9
2018-Jan-18 16:30N 37°45' W 122°43'1 1.4
2018-Jan-18 16:00N 37°46' W 122°43'0 0.7
2018-Jan-18 15:30N 37°46' W 122°42'1 1.7
2018-Jan-18 15:00N 37°45' W 122°41'1 2.7
2018-Jan-18 14:28N 37°45' W 122°40'1 2.0
2018-Jan-18 14:00N 37°45' W 122°41'1 2.5
2018-Jan-18 13:30N 37°46' W 122°40'0 0.7
2018-Jan-18 12:55N 37°46' W 122°41'1 2.9
2018-Jan-18 12:30N 37°45' W 122°41'1 2.8
2018-Jan-18 12:00N 37°45' W 122°39'1 1.8
2018-Jan-18 11:30N 37°45' W 122°40'0 0.9
2018-Jan-18 11:00N 37°44' W 122°41'2 4.6
2018-Jan-18 10:30N 37°46' W 122°42'0 0.1
2018-Jan-18 10:00N 37°46' W 122°42'2 3.5
2018-Jan-18 09:30N 37°45' W 122°40'1 2.3
2018-Jan-18 09:00N 37°46' W 122°41'0 0.3
2018-Jan-18 08:30N 37°46' W 122°40'0 0.7
2018-Jan-18 08:00N 37°46' W 122°40'2 4.2
2018-Jan-18 07:30N 37°44' W 122°42'0 0.3
2018-Jan-18 07:00N 37°44' W 122°42'0 0.8
2018-Jan-18 06:30N 37°45' W 122°41'1 1.5
2018-Jan-18 06:00N 37°45' W 122°41'1 1.7
2018-Jan-18 05:30N 37°46' W 122°40'0 0.6
2018-Jan-18 05:00N 37°46' W 122°40'1 1.7
2018-Jan-18 04:30N 37°46' W 122°41'1 2.1
2018-Jan-18 03:59N 37°46' W 122°40'0 0.9
2018-Jan-18 03:30N 37°46' W 122°40'0 0.3
2018-Jan-18 03:00N 37°46' W 122°40'0 0.7
2018-Jan-18 02:30N 37°46' W 122°40'1 1.9
2018-Jan-18 01:59N 37°46' W 122°41'1 1.4
2018-Jan-18 01:30N 37°46' W 122°40'1 1.1
2018-Jan-18 01:00N 37°45' W 122°40'1 1.5
2018-Jan-18 00:00N 37°44' W 122°40'0 0.9
2018-Jan-17 23:57N 37°44' W 122°40'  

Dump ship's entire track history